LTAL

Kastamonu

Kastamonu, Turkey
TAF LTAL 211340Z 2115/2124 35008KT 9999 SCT027 BKN080
Issued Valid From Valid To
Jul-21 @ 13:40 UTC
(4 hours ago)
Jul-21 @ 15:00 UTC
(3 hours ago)
Jul-22 @ 00:00 UTC
(in 6 hours)
Jul-21 @ 15:00 to Jul-22 @ 00:00
TAF LTAL 211340Z 2115/2124 35008KT 9999 SCT027 BKN080
Wind Visibility Clouds
350° at 8 knots 10,000+ meters
  • Scattered at 2,700' AGL
  • Broken at 8,000' AGL
TAF LTAL 211340Z 2115/2124 35008KT 9999 SCT027 BKN080
Issued Jul-21 @ 13:40 UTC
(4 hours ago)
Valid From Jul-21 @ 15:00 UTC
(3 hours ago)
Valid To Jul-22 @ 00:00 UTC
(in 6 hours)
Jul-21 @ 15:00 - Jul-22 @ 00:00
Wind Visibility
350° at 8 knots 10,000+ meters
Clouds
  • Scattered at 2,700' AGL
  • Broken at 8,000' AGL